Leavenworth, Washington
Current Conditions -  °F | °C
As of 7:55 PM on Thursday 18 Dec 2014 (Local Time) from KEAT Reporting Station
Light Rain Light Rain  
Wind Chill: 38°   Ceiling: 1300
Heat Index: 38°   Visibility: 3mi
Dew Point: 36°   Wind: 0mph
Humidity: 93%   Direction: NA
Pressure: 29.93"   Gusts: NA
Location:  47.6°N, 120.66°W
Report Text: KEAT 190355Z AUTO 00000KT 3SM -RA BR SCT008 OVC013 03/02 A2993 RMK AO2 RAB18 SLP145 P0004 T00330022
Loading
Personal Weather Stations






























Interactive Weather Map New forecast layout! Learn more

10-Day Weather Forecast

Advertisements
Track Severe Weather on mobile